Time;durP1;ratioP1;P1;durP2;ratioP2;P2;SDS_P1;SDS_P2;PMS_P1;PMS_P2;Temp;Humidity;BMP_temperature;BMP_pressure;BME280_temperature;BME280_humidity;BME280_pressure;Samples;Min_cycle;Max_cycle;Signal;HPM_P1;HPM_P2
2023/10/03 00:00:27;;;;;;;14.68;7.28;;;15.40;99.90;;;;;;4948121;29;20588;-83
2023/10/03 00:02:55;;;;;;;17.45;8.30;;;15.30;99.90;;;;;;4936196;28;20213;-83
2023/10/03 00:05:23;;;;;;;14.80;6.78;;;15.30;99.90;;;;;;4943274;29;20223;-83
2023/10/03 00:07:51;;;;;;;16.70;7.00;;;15.20;99.90;;;;;;4936562;29;20311;-83
2023/10/03 00:10:18;;;;;;;14.48;6.95;;;15.10;99.90;;;;;;4933246;28;20217;-81
2023/10/03 00:12:48;;;;;;;15.32;6.85;;;15.10;99.90;;;;;;4945067;29;20586;-81
2023/10/03 00:15:16;;;;;;;15.60;7.38;;;15.10;99.90;;;;;;4934159;29;20218;-82
2023/10/03 00:17:44;;;;;;;17.30;7.50;;;15.10;99.90;;;;;;4936009;28;20239;-80
2023/10/03 00:20:12;;;;;;;17.05;7.97;;;15.10;99.90;;;;;;4932041;29;20247;-81
2023/10/03 00:22:39;;;;;;;13.75;6.88;;;15.10;99.90;;;;;;4936268;29;20203;-81
2023/10/03 00:25:08;;;;;;;15.80;7.53;;;15.00;99.90;;;;;;4944636;29;20270;-82
2023/10/03 00:27:36;;;;;;;16.45;8.20;;;15.10;99.90;;;;;;4939590;29;20211;-80
2023/10/03 00:30:05;;;;;;;14.90;7.88;;;15.10;99.90;;;;;;4938571;29;20261;-81
2023/10/03 00:32:33;;;;;;;16.23;7.28;;;15.30;99.90;;;;;;4942168;29;20202;-82
2023/10/03 00:35:01;;;;;;;16.88;7.15;;;15.20;99.90;;;;;;4937565;29;20209;-82
2023/10/03 00:37:29;;;;;;;15.93;7.30;;;15.00;99.90;;;;;;4939371;29;20251;-82
2023/10/03 00:39:57;;;;;;;15.63;7.38;;;14.90;99.90;;;;;;4935229;29;20275;-79
2023/10/03 00:42:24;;;;;;;14.45;6.65;;;15.00;99.90;;;;;;4936144;29;20200;-81
2023/10/03 00:44:51;;;;;;;14.85;6.85;;;15.10;99.90;;;;;;4931380;29;20660;-81
2023/10/03 00:47:18;;;;;;;15.43;6.55;;;15.10;99.90;;;;;;4940143;29;20210;-81
2023/10/03 00:49:47;;;;;;;17.05;6.95;;;15.20;99.90;;;;;;4936233;29;20271;-82
2023/10/03 00:52:14;;;;;;;14.77;6.80;;;15.20;99.90;;;;;;4937534;29;20298;-82
2023/10/03 00:54:41;;;;;;;17.27;7.40;;;15.20;99.90;;;;;;4929925;29;20213;-81
2023/10/03 00:57:08;;;;;;;17.92;6.88;;;15.20;99.90;;;;;;4937846;29;20303;-82
2023/10/03 00:59:35;;;;;;;14.80;6.63;;;15.10;99.90;;;;;;4933489;29;20229;-82
2023/10/03 01:02:06;;;;;;;17.35;7.07;;;15.00;99.90;;;;;;4941172;29;20206;-83
2023/10/03 01:04:34;;;;;;;18.63;7.18;;;15.10;99.90;;;;;;4933761;29;20691;-82
2023/10/03 01:07:02;;;;;;;15.30;6.68;;;15.10;99.90;;;;;;4937864;29;20203;-80
2023/10/03 01:09:31;;;;;;;17.17;6.57;;;15.30;99.90;;;;;;4940216;29;20590;-81
2023/10/03 01:11:58;;;;;;;18.80;7.80;;;15.50;99.90;;;;;;4928349;29;20631;-82
2023/10/03 01:14:26;;;;;;;15.25;6.78;;;15.40;99.90;;;;;;4937183;29;20210;-81
2023/10/03 01:16:53;;;;;;;15.55;7.53;;;15.70;99.90;;;;;;4933706;29;20253;-80
2023/10/03 01:19:24;;;;;;;17.90;7.53;;;15.90;99.90;;;;;;4932585;29;20679;-82
2023/10/03 01:21:52;;;;;;;16.02;7.13;;;15.90;99.90;;;;;;4936456;29;20198;-81
2023/10/03 01:24:24;;;;;;;18.38;8.40;;;15.70;99.90;;;;;;4936125;29;20235;-83
2023/10/03 01:26:53;;;;;;;18.17;8.15;;;15.90;99.90;;;;;;4938152;28;20310;-82
2023/10/03 01:29:20;;;;;;;17.92;7.97;;;16.00;99.90;;;;;;4938685;29;20645;-81
2023/10/03 01:31:49;;;;;;;18.13;7.82;;;16.20;99.90;;;;;;4929456;29;20300;-83
2023/10/03 01:34:16;;;;;;;19.08;8.25;;;16.20;99.90;;;;;;4934419;29;20250;-81
2023/10/03 01:36:48;;;;;;;19.20;8.82;;;16.20;99.90;;;;;;4927130;29;20661;-82
2023/10/03 01:39:14;;;;;;;20.75;8.30;;;16.40;99.90;;;;;;4928665;29;20227;-82
2023/10/03 01:41:43;;;;;;;18.15;8.20;;;16.50;99.90;;;;;;4929462;29;20213;-83
2023/10/03 01:44:10;;;;;;;17.63;8.13;;;16.70;99.90;;;;;;4933239;29;20206;-82
2023/10/03 01:46:38;;;;;;;18.83;8.70;;;16.60;99.90;;;;;;4929198;29;20213;-82
2023/10/03 01:49:05;;;;;;;20.38;8.68;;;16.70;99.90;;;;;;4933433;29;20219;-83
2023/10/03 01:51:32;;;;;;;18.60;8.43;;;16.70;99.90;;;;;;4937861;29;20203;-82
2023/10/03 01:53:59;;;;;;;19.58;8.40;;;16.50;99.90;;;;;;4937377;29;20667;-82
2023/10/03 01:56:26;;;;;;;18.92;8.75;;;16.50;99.90;;;;;;4938172;29;20211;-82
2023/10/03 01:58:55;;;;;;;17.25;8.43;;;16.60;99.90;;;;;;4942430;28;20233;-81
2023/10/03 02:01:23;;;;;;;17.25;7.95;;;16.50;99.90;;;;;;4933831;29;20207;-82
2023/10/03 02:03:50;;;;;;;18.23;8.38;;;16.50;99.90;;;;;;4932945;29;20671;-82
2023/10/03 02:06:19;;;;;;;19.55;7.60;;;16.60;99.90;;;;;;4938493;29;20261;-81
2023/10/03 02:08:47;;;;;;;16.88;7.32;;;16.50;99.90;;;;;;4937429;29;20227;-82
2023/10/03 02:11:14;;;;;;;16.27;7.43;;;16.30;99.90;;;;;;4935637;29;20647;-81
2023/10/03 02:13:41;;;;;;;14.65;7.60;;;16.40;99.90;;;;;;4939452;29;20697;-81
2023/10/03 02:16:10;;;;;;;17.02;7.78;;;16.40;99.90;;;;;;4933340;29;20270;-80
2023/10/03 02:18:37;;;;;;;15.70;7.10;;;16.30;99.90;;;;;;4931092;29;20255;-82
2023/10/03 02:21:05;;;;;;;17.02;7.93;;;16.40;99.90;;;;;;4933963;29;20223;-80
2023/10/03 02:23:32;;;;;;;18.55;8.05;;;16.40;99.90;;;;;;4934974;29;20207;-81
2023/10/03 02:26:07;;;;;;;15.52;8.13;;;16.40;99.90;;;;;;4933291;29;20203;-82
2023/10/03 02:28:34;;;;;;;16.15;7.10;;;16.60;99.90;;;;;;4936871;29;20423;-82
2023/10/03 02:31:02;;;;;;;16.50;7.47;;;16.60;99.90;;;;;;4931715;29;20207;-82
2023/10/03 02:33:31;;;;;;;18.98;8.90;;;16.70;99.90;;;;;;4949770;29;20215;-82
2023/10/03 02:35:58;;;;;;;15.95;7.47;;;17.10;99.90;;;;;;4944809;29;20321;-82
2023/10/03 02:38:25;;;;;;;15.35;7.97;;;16.50;99.90;;;;;;4955732;29;20324;-82
2023/10/03 02:40:54;;;;;;;16.35;8.07;;;16.50;99.90;;;;;;4948337;29;20227;-82
2023/10/03 02:43:21;;;;;;;16.38;7.95;;;16.80;99.90;;;;;;4936486;29;20207;-82
2023/10/03 02:45:48;;;;;;;16.38;7.50;;;16.80;99.90;;;;;;4934975;29;20216;-82
2023/10/03 02:48:15;;;;;;;16.33;7.35;;;16.70;99.90;;;;;;4939186;29;20227;-83
2023/10/03 02:50:46;;;;;;;18.88;8.07;;;16.70;99.90;;;;;;4940473;29;20614;-82
2023/10/03 02:53:17;;;;;;;17.60;7.38;;;16.90;99.90;;;;;;4932162;29;20215;-80
2023/10/03 02:55:46;;;;;;;17.17;8.07;;;16.80;99.90;;;;;;4940558;29;20664;-81
2023/10/03 02:58:13;;;;;;;15.82;6.80;;;16.80;99.90;;;;;;4938185;29;20235;-79
2023/10/03 03:00:40;;;;;;;16.23;7.57;;;17.00;99.90;;;;;;4926236;29;20227;-80
2023/10/03 03:03:09;;;;;;;16.52;8.00;;;17.00;99.90;;;;;;4940231;29;20211;-81
2023/10/03 03:05:37;;;;;;;18.90;8.27;;;17.00;99.90;;;;;;4938733;29;20566;-80
2023/10/03 03:08:21;;;;;;;19.45;7.93;;;16.90;99.90;;;;;;4937859;29;20223;-81
2023/10/03 03:10:51;;;;;;;17.27;8.07;;;16.90;99.90;;;;;;4939827;29;20686;-81
2023/10/03 03:13:19;;;;;;;17.02;8.23;;;16.90;99.90;;;;;;4939934;29;20218;-81
2023/10/03 03:15:51;;;;;;;17.52;7.82;;;16.80;99.90;;;;;;4935011;29;20215;-82
2023/10/03 03:18:20;;;;;;;16.90;8.20;;;16.90;99.90;;;;;;4921062;29;20762;-81
2023/10/03 03:20:53;;;;;;;17.75;8.35;;;16.90;99.90;;;;;;4919413;29;20287;-81
2023/10/03 03:23:23;;;;;;;17.63;9.05;;;16.80;99.90;;;;;;4938819;29;20581;-81
2023/10/03 03:25:57;;;;;;;15.45;7.93;;;16.60;99.90;;;;;;4938618;29;20581;-79
2023/10/03 03:28:24;;;;;;;18.08;9.20;;;16.70;99.90;;;;;;4927496;29;20274;-81
2023/10/03 03:30:57;;;;;;;19.92;9.15;;;16.70;99.90;;;;;;4939834;29;20207;-81
2023/10/03 03:33:27;;;;;;;19.67;9.10;;;16.90;99.90;;;;;;4939934;29;20207;-81
2023/10/03 03:35:55;;;;;;;24.00;9.10;;;17.00;99.90;;;;;;4939698;29;20202;-81
2023/10/03 03:38:23;;;;;;;21.50;9.35;;;16.90;99.90;;;;;;4920134;29;20393;-80
2023/10/03 03:40:56;;;;;;;18.75;8.82;;;17.10;99.90;;;;;;4935058;29;20223;-82
2023/10/03 03:43:23;;;;;;;21.10;8.45;;;17.20;99.90;;;;;;4937347;29;20206;-80
2023/10/03 03:45:51;;;;;;;18.70;9.02;;;17.30;99.90;;;;;;4938902;29;20211;-80
2023/10/03 03:48:21;;;;;;;21.02;9.32;;;17.30;99.90;;;;;;4937796;29;20238;-82
2023/10/03 03:50:49;;;;;;;17.73;8.20;;;17.50;99.90;;;;;;4938982;29;20203;-82
2023/10/03 03:53:16;;;;;;;20.00;8.88;;;17.80;99.90;;;;;;4939249;29;20210;-82
2023/10/03 03:55:45;;;;;;;19.48;9.27;;;17.90;99.90;;;;;;4938305;29;20667;-79
2023/10/03 03:58:16;;;;;;;17.17;8.77;;;17.80;99.90;;;;;;4937727;29;20306;-80
2023/10/03 04:00:47;;;;;;;19.25;8.90;;;17.90;99.90;;;;;;4940732;29;20584;-82
2023/10/03 04:03:14;;;;;;;17.88;8.93;;;17.80;99.90;;;;;;4933444;29;20645;-79
2023/10/03 04:05:42;;;;;;;18.42;8.50;;;17.70;99.90;;;;;;4937087;29;20638;-80
2023/10/03 04:08:09;;;;;;;18.98;8.77;;;17.60;99.90;;;;;;4927482;29;20238;-81
2023/10/03 04:10:36;;;;;;;17.52;8.55;;;17.50;99.90;;;;;;4936012;29;20202;-80
2023/10/03 04:13:09;;;;;;;22.67;9.82;;;17.60;99.90;;;;;;4939241;29;20214;-81
2023/10/03 04:15:37;;;;;;;20.90;9.75;;;17.70;99.90;;;;;;4937594;29;20293;-79
2023/10/03 04:18:05;;;;;;;20.45;8.88;;;17.60;99.90;;;;;;4936512;29;20247;-80
2023/10/03 04:20:35;;;;;;;22.08;9.82;;;17.60;99.90;;;;;;4937125;29;20238;-81
2023/10/03 04:23:03;;;;;;;18.58;8.95;;;17.40;99.90;;;;;;4938370;29;20210;-82
2023/10/03 04:25:32;;;;;;;19.08;9.00;;;17.40;99.90;;;;;;4937730;29;20203;-82
2023/10/03 04:27:59;;;;;;;19.45;9.43;;;17.40;99.90;;;;;;4929386;29;20290;-80
2023/10/03 04:30:28;;;;;;;21.08;9.68;;;17.30;99.90;;;;;;4919730;29;20213;-82
2023/10/03 04:32:56;;;;;;;22.85;9.77;;;17.20;99.90;;;;;;4927654;29;20207;-80
2023/10/03 04:35:25;;;;;;;19.90;9.02;;;17.30;99.90;;;;;;4938506;29;20645;-81
2023/10/03 04:37:52;;;;;;;20.42;9.13;;;17.20;99.90;;;;;;4938351;29;20234;-82
2023/10/03 04:40:27;;;;;;;20.75;9.10;;;16.90;99.90;;;;;;4938235;29;20618;-80
2023/10/03 04:42:55;;;;;;;20.55;8.80;;;16.90;99.90;;;;;;4922297;29;20218;-81
2023/10/03 04:45:23;;;;;;;19.67;9.48;;;16.70;99.90;;;;;;4919223;29;20302;-82
2023/10/03 04:47:51;;;;;;;20.10;8.82;;;16.60;99.90;;;;;;4933378;29;20234;-82
2023/10/03 04:50:23;;;;;;;20.55;8.90;;;16.50;99.90;;;;;;4937179;29;20551;-82
2023/10/03 04:52:50;;;;;;;18.60;9.20;;;16.60;99.90;;;;;;4944537;28;20251;-82
2023/10/03 04:55:17;;;;;;;21.38;9.27;;;16.60;99.90;;;;;;4937820;29;20222;-80
2023/10/03 04:57:46;;;;;;;18.48;8.70;;;16.80;99.90;;;;;;4936092;29;20247;-82
2023/10/03 05:00:15;;;;;;;19.10;9.20;;;16.80;99.90;;;;;;4937730;29;20230;-80
2023/10/03 05:02:46;;;;;;;21.50;9.20;;;17.30;99.90;;;;;;4934407;29;20205;-82
2023/10/03 05:05:16;;;;;;;23.17;10.27;;;17.40;99.90;;;;;;4938565;29;20657;-82
2023/10/03 05:07:43;;;;;;;21.40;9.73;;;17.70;99.90;;;;;;4939425;29;20241;-81
2023/10/03 05:10:11;;;;;;;21.08;9.70;;;17.50;99.90;;;;;;4940686;29;20199;-81
2023/10/03 05:12:38;;;;;;;19.50;9.75;;;17.70;99.90;;;;;;4938350;29;20207;-82
2023/10/03 05:15:08;;;;;;;19.75;9.50;;;17.50;99.90;;;;;;4938175;29;20207;-82
2023/10/03 05:17:35;;;;;;;21.92;9.90;;;18.00;99.90;;;;;;4946380;29;20210;-81
2023/10/03 05:20:02;;;;;;;18.48;9.50;;;17.80;99.90;;;;;;4937945;29;20226;-82
2023/10/03 05:22:32;;;;;;;22.48;9.82;;;18.20;99.90;;;;;;4925779;29;20298;-82
2023/10/03 05:25:00;;;;;;;19.42;9.23;;;18.00;99.90;;;;;;4935516;29;20218;-82
2023/10/03 05:27:28;;;;;;;19.92;9.20;;;18.00;99.90;;;;;;4937366;29;20572;-80
2023/10/03 05:29:58;;;;;;;18.85;9.32;;;18.30;99.90;;;;;;4930252;29;20219;-82
2023/10/03 05:32:26;;;;;;;21.15;10.10;;;18.10;99.90;;;;;;4930229;29;20234;-83
2023/10/03 05:34:53;;;;;;;21.48;9.50;;;18.40;99.90;;;;;;4937718;29;20203;-81
2023/10/03 05:37:20;;;;;;;21.67;10.35;;;18.50;99.90;;;;;;4939311;29;20217;-82
2023/10/03 05:39:49;;;;;;;21.40;9.52;;;18.40;99.90;;;;;;4937625;29;20625;-80
2023/10/03 05:42:18;;;;;;;19.27;8.85;;;18.50;99.90;;;;;;4934958;29;20215;-82
2023/10/03 05:44:45;;;;;;;21.58;9.45;;;18.40;99.90;;;;;;4937081;29;20206;-83
2023/10/03 05:47:14;;;;;;;18.05;8.90;;;18.40;99.90;;;;;;4936751;29;20639;-82
2023/10/03 05:49:43;;;;;;;19.92;9.45;;;18.60;99.90;;;;;;4937779;29;20278;-82
2023/10/03 05:52:10;;;;;;;21.40;9.23;;;18.60;99.90;;;;;;4937161;29;20262;-82
2023/10/03 05:54:37;;;;;;;18.42;8.88;;;18.80;99.90;;;;;;4935546;29;20313;-82
2023/10/03 05:57:05;;;;;;;19.65;9.88;;;18.90;99.90;;;;;;4928165;29;20195;-81
2023/10/03 05:59:32;;;;;;;21.05;9.50;;;19.10;99.90;;;;;;4937881;29;20219;-82
2023/10/03 06:01:59;;;;;;;18.75;8.52;;;19.20;99.90;;;;;;4937082;29;20245;-81
2023/10/03 06:04:26;;;;;;;21.20;9.45;;;19.40;99.90;;;;;;4933590;29;20203;-82
2023/10/03 06:06:54;;;;;;;23.55;9.68;;;19.20;99.90;;;;;;4939391;29;20210;-82
2023/10/03 06:09:23;;;;;;;18.30;8.93;;;19.10;99.90;;;;;;4939789;29;20702;-81
2023/10/03 06:11:50;;;;;;;20.92;9.30;;;19.20;99.90;;;;;;4940395;29;20199;-81
2023/10/03 06:14:21;;;;;;;20.17;9.80;;;19.30;99.90;;;;;;4940562;29;20203;-83
2023/10/03 06:16:48;;;;;;;21.75;9.55;;;19.30;99.90;;;;;;4940378;29;20207;-83
2023/10/03 06:19:15;;;;;;;19.98;9.30;;;19.20;99.90;;;;;;4940283;29;20227;-84
2023/10/03 06:21:42;;;;;;;18.85;8.80;;;19.30;99.90;;;;;;4941295;29;20695;-82
2023/10/03 06:24:09;;;;;;;19.73;9.85;;;19.40;99.90;;;;;;4941942;29;20242;-82
2023/10/03 06:26:36;;;;;;;20.42;10.40;;;19.30;99.90;;;;;;4941406;29;20581;-83
2023/10/03 06:29:04;;;;;;;21.08;9.85;;;19.40;99.90;;;;;;4943244;29;20230;-81
2023/10/03 06:31:33;;;;;;;18.83;8.90;;;19.50;99.90;;;;;;4947436;29;20654;-81
2023/10/03 06:34:01;;;;;;;19.30;9.23;;;19.50;99.90;;;;;;4949961;29;20219;-83
2023/10/03 06:36:27;;;;;;;18.70;8.63;;;19.50;99.90;;;;;;4933299;29;20699;-83
2023/10/03 06:38:54;;;;;;;22.50;9.43;;;19.70;99.90;;;;;;4936337;29;20706;-83
2023/10/03 06:41:21;;;;;;;17.83;8.82;;;19.70;99.90;;;;;;4937270;29;20699;-82
2023/10/03 06:43:49;;;;;;;19.25;8.32;;;19.80;99.90;;;;;;4929990;29;20279;-82
2023/10/03 06:46:15;;;;;;;19.77;8.98;;;19.70;99.90;;;;;;4937712;29;20302;-83
2023/10/03 06:48:46;;;;;;;22.58;9.15;;;20.00;99.90;;;;;;4934563;29;20691;-80
2023/10/03 06:51:13;;;;;;;19.40;9.20;;;20.00;99.90;;;;;;4930541;29;20629;-82
2023/10/03 06:53:41;;;;;;;22.05;10.40;;;20.00;99.90;;;;;;4932675;29;20207;-83
2023/10/03 06:56:08;;;;;;;19.23;9.10;;;20.00;99.90;;;;;;4954870;29;20604;-83
2023/10/03 06:58:35;;;;;;;18.63;8.50;;;20.00;99.90;;;;;;4934431;29;20568;-83
2023/10/03 07:01:02;;;;;;;19.92;9.40;;;20.10;99.90;;;;;;4941149;29;20603;-82
2023/10/03 07:03:29;;;;;;;21.20;9.65;;;20.10;99.90;;;;;;4940555;29;20215;-81
2023/10/03 07:05:58;;;;;;;17.48;8.70;;;20.30;99.90;;;;;;4940018;29;20218;-83
2023/10/03 07:08:26;;;;;;;20.40;8.50;;;20.00;99.90;;;;;;4940059;29;20222;-82
2023/10/03 07:10:53;;;;;;;19.80;9.38;;;20.10;99.90;;;;;;4939424;29;20207;-83
2023/10/03 07:13:20;;;;;;;20.33;9.65;;;20.10;99.90;;;;;;4938727;29;20211;-84
2023/10/03 07:15:48;;;;;;;17.38;8.90;;;20.20;99.90;;;;;;4920191;29;20739;-82
2023/10/03 07:18:15;;;;;;;18.58;8.23;;;20.20;99.90;;;;;;4922385;29;20231;-81
2023/10/03 07:20:43;;;;;;;20.38;9.20;;;20.40;99.90;;;;;;4930036;29;20246;-80
2023/10/03 07:23:11;;;;;;;16.73;8.77;;;20.50;99.90;;;;;;4941693;29;20671;-82
2023/10/03 07:25:38;;;;;;;16.40;8.10;;;20.70;99.90;;;;;;4940668;29;20579;-82
2023/10/03 07:28:05;;;;;;;18.98;8.63;;;20.70;99.90;;;;;;4928037;29;20722;-82
2023/10/03 07:30:34;;;;;;;18.38;7.75;;;20.80;99.90;;;;;;4928328;29;20203;-83
2023/10/03 07:33:00;;;;;;;18.60;8.57;;;20.20;99.90;;;;;;4940105;29;20207;-80
2023/10/03 07:35:28;;;;;;;17.70;9.10;;;20.90;99.90;;;;;;4933753;29;20639;-80
2023/10/03 07:37:57;;;;;;;16.10;7.57;;;20.90;99.90;;;;;;4920681;29;20243;-82
2023/10/03 07:40:27;;;;;;;18.75;8.38;;;20.90;99.90;;;;;;4933325;29;20298;-82
2023/10/03 07:42:54;;;;;;;17.63;8.50;;;20.90;99.90;;;;;;4940181;29;20565;-82
2023/10/03 07:45:21;;;;;;;20.20;8.93;;;21.00;99.90;;;;;;4939726;29;20213;-81
2023/10/03 07:47:50;;;;;;;24.45;13.40;;;21.00;99.90;;;;;;4957055;29;20232;-83
2023/10/03 07:50:18;;;;;;;18.35;8.77;;;21.00;99.90;;;;;;4959008;29;20627;-81
2023/10/03 07:52:48;;;;;;;18.88;8.85;;;21.10;99.90;;;;;;4940420;29;20239;-82
2023/10/03 07:55:15;;;;;;;16.63;8.43;;;20.90;99.90;;;;;;4940483;29;20259;-80
2023/10/03 07:57:44;;;;;;;17.95;8.70;;;21.00;99.90;;;;;;4939602;29;20206;-81
2023/10/03 08:00:20;;;;;;;18.92;8.48;;;21.10;99.90;;;;;;4939053;29;20214;-80
2023/10/03 08:02:49;;;;;;;16.67;8.50;;;21.10;99.90;;;;;;4939798;29;20643;-79
2023/10/03 08:05:16;;;;;;;18.65;8.80;;;21.20;99.90;;;;;;4934514;29;20239;-81
2023/10/03 08:07:47;;;;;;;18.00;8.65;;;21.20;99.90;;;;;;4937039;29;20233;-80
2023/10/03 08:10:15;;;;;;;17.20;7.85;;;21.20;99.90;;;;;;4937330;29;20562;-80
2023/10/03 08:12:44;;;;;;;18.08;9.13;;;21.20;99.90;;;;;;4921184;29;20208;-79
2023/10/03 08:15:17;;;;;;;19.20;8.95;;;21.10;99.90;;;;;;4920692;29;20231;-78
2023/10/03 08:17:48;;;;;;;18.58;8.60;;;21.00;99.90;;;;;;4921048;29;20770;-79
2023/10/03 08:20:15;;;;;;;18.42;7.65;;;20.90;99.90;;;;;;4920623;29;20192;-79
2023/10/03 08:22:42;;;;;;;17.83;8.40;;;20.90;99.90;;;;;;4934224;29;20222;-80
2023/10/03 08:25:10;;;;;;;18.70;8.95;;;21.00;99.90;;;;;;4948149;29;20212;-80
2023/10/03 08:27:37;;;;;;;19.63;8.77;;;21.10;99.90;;;;;;4933495;29;20218;-79
2023/10/03 08:30:08;;;;;;;19.33;9.38;;;21.10;99.90;;;;;;4919725;29;20211;-78
2023/10/03 08:32:39;;;;;;;16.73;8.02;;;21.20;99.90;;;;;;4924666;29;20211;-78
2023/10/03 08:35:08;;;;;;;18.65;8.82;;;21.20;99.90;;;;;;4939544;29;20199;-83
2023/10/03 08:37:38;;;;;;;20.80;9.63;;;21.20;99.90;;;;;;4939340;29;20310;-82
2023/10/03 08:40:19;;;;;;;20.38;9.23;;;21.30;99.90;;;;;;4928118;29;20596;-82
2023/10/03 08:42:52;;;;;;;17.90;8.43;;;21.30;99.90;;;;;;4919895;29;20222;-80
2023/10/03 08:45:25;;;;;;;15.88;8.10;;;21.40;99.90;;;;;;4937203;29;20670;-81
2023/10/03 08:47:54;;;;;;;18.17;9.05;;;21.40;99.90;;;;;;4939339;29;20246;-82
2023/10/03 08:50:34;;;;;;;19.35;8.57;;;21.30;99.90;;;;;;4939582;29;20308;-81
2023/10/03 08:53:12;;;;;;;18.95;8.73;;;21.30;99.90;;;;;;4930934;29;20621;-81
2023/10/03 08:55:43;;;;;;;16.42;8.05;;;21.30;99.90;;;;;;4939668;29;20191;-83
2023/10/03 08:58:13;;;;;;;20.98;9.27;;;21.30;99.90;;;;;;4938686;29;20227;-81
2023/10/03 09:00:44;;;;;;;20.00;8.82;;;21.30;99.90;;;;;;4939724;29;20210;-81
2023/10/03 09:03:14;;;;;;;20.85;8.80;;;21.30;99.90;;;;;;4939212;29;20191;-83
2023/10/03 09:05:41;;;;;;;18.92;8.82;;;21.30;99.90;;;;;;4943447;29;20214;-84
2023/10/03 09:08:09;;;;;;;20.90;9.23;;;21.50;99.90;;;;;;4924409;29;20234;-81
2023/10/03 09:10:51;;;;;;;19.83;9.48;;;21.70;99.90;;;;;;4933262;29;20213;-79
2023/10/03 09:13:23;;;;;;;18.75;9.13;;;21.70;99.90;;;;;;4938542;29;20352;-79
2023/10/03 09:15:59;;;;;;;19.02;9.15;;;21.60;99.90;;;;;;4939206;29;20206;-81
2023/10/03 09:18:26;;;;;;;16.27;8.65;;;21.60;99.90;;;;;;4941168;29;20225;-80
2023/10/03 09:20:59;;;;;;;17.45;9.15;;;21.50;99.90;;;;;;4957341;29;20241;-82
2023/10/03 09:23:27;;;;;;;20.83;9.93;;;21.50;99.90;;;;;;4957811;29;20194;-81
2023/10/03 09:25:56;;;;;;;20.00;9.35;;;21.40;99.90;;;;;;4934861;29;20254;-80
2023/10/03 09:28:35;;;;;;;17.67;9.10;;;21.40;99.90;;;;;;4937784;28;20230;-81
2023/10/03 09:31:08;;;;;;;18.88;9.60;;;21.50;99.90;;;;;;4938368;29;20202;-82
2023/10/03 09:33:38;;;;;;;20.55;9.48;;;21.60;99.90;;;;;;4938202;29;20266;-81
2023/10/03 09:36:06;;;;;;;16.95;8.85;;;21.60;99.90;;;;;;4938893;29;20187;-81
2023/10/03 09:38:42;;;;;;;16.80;8.55;;;21.60;99.90;;;;;;4938227;29;20239;-82
2023/10/03 09:41:16;;;;;;;17.52;8.93;;;21.30;99.90;;;;;;4941962;28;20321;-82
2023/10/03 09:43:53;;;;;;;18.48;8.85;;;21.50;99.90;;;;;;4942822;29;20210;-82
2023/10/03 09:46:38;;;;;;;15.50;8.60;;;21.60;99.90;;;;;;4942004;29;20202;-81
2023/10/03 09:49:09;;;;;;;16.20;8.30;;;21.60;99.90;;;;;;4943561;29;20266;-80
2023/10/03 09:54:30;;;;;;;21.80;7.88;;;21.50;99.90;;;;;;4924119;29;20204;-82
2023/10/03 09:56:58;;;;;;;14.90;7.05;;;21.50;99.90;;;;;;4925100;29;20612;-80
2023/10/03 09:59:25;;;;;;;12.10;6.82;;;21.40;99.90;;;;;;4942844;29;20299;-84
2023/10/03 10:01:59;;;;;;;14.45;6.07;;;21.50;99.90;;;;;;4942995;28;20227;-81
2023/10/03 10:04:30;;;;;;;16.45;6.30;;;21.40;99.90;;;;;;4941484;29;20209;-81
2023/10/03 10:07:14;;;;;;;13.82;6.78;;;21.40;99.90;;;;;;4942442;29;20635;-81
2023/10/03 10:09:52;;;;;;;12.25;7.15;;;21.40;99.90;;;;;;4942701;29;20303;-83
2023/10/03 10:12:21;;;;;;;11.88;6.57;;;21.50;99.90;;;;;;4935480;29;20663;-82
2023/10/03 10:15:26;;;;;;;12.35;6.63;;;21.40;99.90;;;;;;4924631;29;20226;-83
2023/10/03 10:17:56;;;;;;;16.40;6.80;;;21.40;99.90;;;;;;4942905;29;20282;-84
2023/10/03 10:20:37;;;;;;;10.85;6.20;;;21.30;99.90;;;;;;4943281;29;20243;-82
2023/10/03 10:23:15;;;;;;;9.55;5.72;;;21.30;99.90;;;;;;4944294;29;20227;-82
2023/10/03 10:25:43;;;;;;;11.27;6.07;;;21.20;99.90;;;;;;4943813;29;20682;-82
2023/10/03 10:28:11;;;;;;;9.63;5.75;;;21.30;99.90;;;;;;4942732;29;20282;-82
2023/10/03 10:30:42;;;;;;;10.25;5.80;;;21.20;99.90;;;;;;4942999;29;20218;-83
2023/10/03 10:33:27;;;;;;;9.18;5.90;;;21.30;99.90;;;;;;4943639;29;20210;-82
2023/10/03 10:35:55;;;;;;;13.43;5.60;;;21.30;99.90;;;;;;4949374;29;20635;-83
2023/10/03 10:38:23;;;;;;;7.88;4.53;;;21.40;99.90;;;;;;4962477;29;20265;-83
2023/10/03 10:41:26;;;;;;;6.57;4.50;;;21.50;99.90;;;;;;4931431;29;20219;-82
2023/10/03 10:44:09;;;;;;;6.68;3.88;;;21.50;99.90;;;;;;4933438;29;20652;-82
2023/10/03 10:46:39;;;;;;;5.88;3.58;;;21.50;99.90;;;;;;4933422;29;20652;-82
2023/10/03 10:49:30;;;;;;;5.80;3.55;;;21.60;99.90;;;;;;4926968;29;20242;-82
2023/10/03 10:51:57;;;;;;;6.35;3.92;;;21.60;99.90;;;;;;4939619;29;20202;-82
2023/10/03 10:54:25;;;;;;;6.13;3.90;;;21.60;99.90;;;;;;4941194;29;20211;-82
2023/10/03 10:56:59;;;;;;;7.03;4.18;;;21.50;99.90;;;;;;4941485;29;20215;-81
2023/10/03 10:59:27;;;;;;;6.88;4.30;;;21.50;99.90;;;;;;4940845;29;20222;-82
2023/10/03 11:01:57;;;;;;;9.45;5.20;;;21.40;99.90;;;;;;4941301;29;20714;-83
2023/10/03 11:04:27;;;;;;;10.43;5.53;;;21.40;99.90;;;;;;4940537;29;20199;-82
2023/10/03 11:06:54;;;;;;;7.53;4.70;;;21.20;99.90;;;;;;4954740;29;20217;-81
2023/10/03 11:09:22;;;;;;;7.13;4.97;;;21.20;99.90;;;;;;4959575;29;20565;-85
2023/10/03 11:11:51;;;;;;;7.25;4.72;;;21.20;99.90;;;;;;4949993;29;20210;-83
2023/10/03 11:14:26;;;;;;;8.63;5.25;;;21.30;99.90;;;;;;4941225;29;20772;-82
2023/10/03 11:16:53;;;;;;;6.88;5.03;;;21.20;99.90;;;;;;4941604;29;20564;-84
2023/10/03 11:19:19;;;;;;;9.13;4.88;;;21.20;99.90;;;;;;4939851;29;20247;-85
2023/10/03 11:21:48;;;;;;;8.38;5.25;;;21.10;99.90;;;;;;4924771;29;20216;-81
2023/10/03 11:24:16;;;;;;;8.98;4.93;;;21.10;99.90;;;;;;4938270;29;20262;-83
2023/10/03 11:26:43;;;;;;;6.90;4.80;;;21.10;99.90;;;;;;4940961;29;20203;-83
2023/10/03 11:29:10;;;;;;;8.13;4.97;;;21.20;99.90;;;;;;4940956;29;20694;-83
2023/10/03 11:31:38;;;;;;;6.63;4.78;;;21.30;99.90;;;;;;4941102;29;20199;-84
2023/10/03 11:34:05;;;;;;;6.32;4.15;;;21.40;99.90;;;;;;4941204;29;20207;-84
2023/10/03 11:36:41;;;;;;;8.27;4.30;;;21.40;99.90;;;;;;4922079;29;20214;-83
2023/10/03 11:39:12;;;;;;;9.05;4.72;;;21.40;99.90;;;;;;4922177;29;20326;-82
2023/10/03 11:41:40;;;;;;;6.78;5.00;;;21.20;99.90;;;;;;4921776;29;20192;-81
2023/10/03 11:44:20;;;;;;;7.93;4.93;;;21.30;99.90;;;;;;4921519;29;20211;-82
2023/10/03 11:46:48;;;;;;;7.85;4.45;;;21.40;99.90;;;;;;4921806;29;20188;-82
2023/10/03 11:49:15;;;;;;;9.35;5.18;;;21.40;99.90;;;;;;4939698;29;20237;-82
2023/10/03 11:51:43;;;;;;;8.20;5.07;;;21.40;99.90;;;;;;4931087;29;20204;-83
2023/10/03 11:54:14;;;;;;;6.60;4.63;;;21.40;99.90;;;;;;4922040;29;20255;-83
2023/10/03 11:56:45;;;;;;;7.85;4.57;;;21.40;99.90;;;;;;4940813;28;20215;-82
2023/10/03 11:59:14;;;;;;;6.50;4.40;;;21.40;99.90;;;;;;4941024;29;20325;-82
2023/10/03 12:01:42;;;;;;;6.38;4.57;;;21.50;99.90;;;;;;4939725;29;20207;-84
2023/10/03 12:04:10;;;;;;;7.72;5.18;;;21.40;99.90;;;;;;4947446;29;20217;-82
2023/10/03 12:06:37;;;;;;;6.78;4.68;;;21.30;99.90;;;;;;4960503;29;20206;-82
2023/10/03 12:09:08;;;;;;;5.63;3.85;;;21.30;99.90;;;;;;4945159;28;20223;-80
2023/10/03 12:11:37;;;;;;;5.50;3.85;;;21.20;99.90;;;;;;4922066;29;20259;-82
2023/10/03 12:14:04;;;;;;;7.35;4.28;;;21.20;99.90;;;;;;4919858;29;20255;-80
2023/10/03 12:16:31;;;;;;;8.75;4.70;;;21.20;99.90;;;;;;4924985;29;20580;-81
2023/10/03 12:18:58;;;;;;;6.20;3.88;;;21.20;99.90;;;;;;4939517;29;20231;-79
2023/10/03 12:21:26;;;;;;;6.68;3.75;;;21.20;99.90;;;;;;4940713;29;20581;-82
2023/10/03 12:23:52;;;;;;;6.18;4.10;;;21.10;99.90;;;;;;4929635;29;20581;-81
2023/10/03 12:26:20;;;;;;;7.63;4.55;;;21.10;99.90;;;;;;4932267;29;20588;-80
2023/10/03 12:28:49;;;;;;;7.07;4.88;;;21.20;99.90;;;;;;4939411;29;20227;-83
2023/10/03 12:31:21;;;;;;;4.30;3.78;;;21.10;99.90;;;;;;4933419;29;20240;-81
2023/10/03 12:33:48;;;;;;;6.35;4.30;;;21.10;99.90;;;;;;4928463;29;20203;-81
2023/10/03 12:36:16;;;;;;;7.13;4.25;;;21.00;99.90;;;;;;4934926;29;20241;-80
2023/10/03 12:38:43;;;;;;;5.53;4.20;;;21.00;99.90;;;;;;4939570;29;20277;-81
2023/10/03 12:41:10;;;;;;;4.57;4.07;;;21.10;99.90;;;;;;4939126;29;20211;-82
2023/10/03 12:43:46;;;;;;;4.72;4.22;;;21.00;99.90;;;;;;4940995;29;20237;-79
2023/10/03 12:46:14;;;;;;;8.00;4.55;;;20.90;99.90;;;;;;4946395;29;20214;-82
2023/10/03 12:48:41;;;;;;;5.72;3.92;;;20.90;99.90;;;;;;4939188;29;20242;-81
2023/10/03 12:51:09;;;;;;;7.72;4.10;;;20.80;99.90;;;;;;4939132;29;20213;-81